Time;durP1;ratioP1;P1;durP2;ratioP2;P2;SDS_P1;SDS_P2;PMS_P1;PMS_P2;Temp;Humidity;BMP_temperature;BMP_pressure;BME280_temperature;BME280_humidity;BME280_pressure;Samples;Min_cycle;Max_cycle;Signal;HPM_P1;HPM_P2
2022/09/26 00:00:08;;;;;;;7.00;3.53;;;;;;;;;;4977020;28;88029;-63
2022/09/26 00:02:34;;;;;;;10.23;3.85;;;;;;;;;;4986128;28;88689;-63
2022/09/26 00:05:00;;;;;;;9.20;4.10;;;;;;;;;;4988158;28;89243;-64
2022/09/26 00:07:26;;;;;;;8.52;3.78;;;;;;;;;;4983129;28;89807;-63
2022/09/26 00:09:54;;;;;;;10.77;3.65;;;;;;;;;;4987180;28;88758;-62
2022/09/26 00:12:20;;;;;;;5.45;3.40;;;;;;;;;;4984381;28;89731;-62
2022/09/26 00:14:46;;;;;;;7.70;4.32;;;;;;;;;;4980187;28;88928;-62
2022/09/26 00:17:13;;;;;;;7.32;3.45;;;;;;;;;;4979912;28;89024;-63
2022/09/26 00:19:39;;;;;;;8.23;3.33;;;;;;;;;;4976473;28;89143;-63
2022/09/26 00:22:05;;;;;;;7.55;3.50;;;;;;;;;;4977507;28;89957;-63
2022/09/26 00:24:32;;;;;;;11.77;3.40;;;;;;;;;;4978961;28;88961;-64
2022/09/26 00:26:58;;;;;;;7.38;3.10;;;;;;;;;;4977516;28;88870;-63
2022/09/26 00:29:24;;;;;;;6.15;2.55;;;;;;;;;;4977875;28;88782;-63
2022/09/26 00:31:51;;;;;;;6.43;2.75;;;;;;;;;;4977883;28;89014;-63
2022/09/26 00:34:18;;;;;;;9.10;2.90;;;;;;;;;;4975097;28;88133;-63
2022/09/26 00:36:44;;;;;;;6.70;3.00;;;;;;;;;;4976363;28;88955;-63
2022/09/26 00:39:12;;;;;;;5.70;2.97;;;;;;;;;;4980662;28;89020;-62
2022/09/26 00:41:38;;;;;;;10.52;2.92;;;;;;;;;;4975673;28;88665;-62
2022/09/26 00:44:23;;;;;;;5.40;3.03;;;;;;;;;;4979119;28;89004;-63
2022/09/26 00:46:50;;;;;;;5.28;2.40;;;;;;;;;;4977545;28;88052;-62
2022/09/26 00:49:30;;;;;;;12.15;2.88;;;;;;;;;;4974713;28;88876;-62
2022/09/26 00:51:58;;;;;;;5.95;2.30;;;;;;;;;;4981868;28;89432;-62
2022/09/26 00:54:26;;;;;;;3.45;2.28;;;;;;;;;;4981489;28;88760;-62
2022/09/26 00:56:54;;;;;;;6.68;2.58;;;;;;;;;;4983712;28;88462;-62
2022/09/26 00:59:23;;;;;;;8.82;2.55;;;;;;;;;;4985985;28;89095;-62
2022/09/26 01:01:53;;;;;;;5.13;1.90;;;;;;;;;;4981764;28;88756;-62
2022/09/26 01:04:21;;;;;;;7.95;2.60;;;;;;;;;;4985271;28;89418;-62
2022/09/26 01:06:48;;;;;;;9.32;1.60;;;;;;;;;;4984383;28;90459;-63
2022/09/26 01:09:15;;;;;;;6.75;2.10;;;;;;;;;;4991771;28;88276;-62
2022/09/26 01:11:42;;;;;;;6.28;1.77;;;;;;;;;;4987416;28;89996;-62
2022/09/26 01:14:09;;;;;;;8.32;2.38;;;;;;;;;;4977255;28;88641;-63
2022/09/26 01:16:36;;;;;;;9.05;2.00;;;;;;;;;;4977548;28;88778;-62
2022/09/26 01:19:04;;;;;;;8.80;2.38;;;;;;;;;;4975697;28;88856;-62
2022/09/26 01:21:49;;;;;;;9.93;2.67;;;;;;;;;;4971882;28;88674;-62
2022/09/26 01:24:18;;;;;;;7.78;2.10;;;;;;;;;;4962444;28;88784;-62
2022/09/26 01:27:03;;;;;;;8.77;2.38;;;;;;;;;;4974996;28;88958;-62
2022/09/26 01:29:48;;;;;;;9.07;2.50;;;;;;;;;;4976254;28;89457;-62
2022/09/26 01:35:37;;;;;;;9.48;2.97;;;;;;;;;;4975213;28;88929;-62
2022/09/26 01:38:25;;;;;;;9.85;2.67;;;;;;;;;;4976828;28;89235;-62
2022/09/26 01:41:12;;;;;;;4.22;2.35;;;;;;;;;;4976711;28;90048;-63
2022/09/26 01:43:57;;;;;;;5.68;2.63;;;;;;;;;;4970169;28;88099;-63
2022/09/26 01:46:31;;;;;;;9.07;2.83;;;;;;;;;;4980045;28;88802;-62
2022/09/26 01:49:01;;;;;;;6.80;2.55;;;;;;;;;;4978681;28;89587;-63
2022/09/26 01:51:31;;;;;;;16.88;3.22;;;;;;;;;;4992255;28;89841;-63
2022/09/26 01:54:04;;;;;;;9.25;2.70;;;;;;;;;;4990614;28;89156;-63
2022/09/26 01:56:32;;;;;;;5.50;2.92;;;;;;;;;;4976843;28;88241;-63
2022/09/26 01:59:00;;;;;;;6.68;3.28;;;;;;;;;;4972922;28;89328;-63
2022/09/26 02:01:28;;;;;;;7.95;3.45;;;;;;;;;;4973594;28;89851;-64
2022/09/26 02:03:57;;;;;;;6.60;2.97;;;;;;;;;;4977761;28;89038;-62
2022/09/26 02:06:27;;;;;;;5.45;2.83;;;;;;;;;;4977333;28;88029;-63
2022/09/26 02:08:58;;;;;;;11.20;3.10;;;;;;;;;;4980474;28;88956;-62
2022/09/26 02:11:25;;;;;;;9.43;2.60;;;;;;;;;;4977362;28;88632;-64
2022/09/26 02:13:51;;;;;;;12.13;3.15;;;;;;;;;;4991407;28;88468;-64
2022/09/26 02:16:20;;;;;;;6.50;2.83;;;;;;;;;;4977297;28;88356;-62
2022/09/26 02:18:49;;;;;;;11.73;3.22;;;;;;;;;;4985964;28;89776;-63
2022/09/26 02:21:19;;;;;;;12.52;3.53;;;;;;;;;;4989991;28;90029;-63
2022/09/26 02:23:46;;;;;;;8.30;2.78;;;;;;;;;;4978706;28;88570;-63
2022/09/26 02:26:13;;;;;;;10.80;3.53;;;;;;;;;;4985088;28;87983;-63
2022/09/26 02:28:39;;;;;;;9.88;3.00;;;;;;;;;;4976513;28;90027;-63
2022/09/26 02:31:07;;;;;;;7.10;3.15;;;;;;;;;;4988755;28;88975;-62
2022/09/26 02:33:33;;;;;;;11.27;4.40;;;;;;;;;;4976587;28;89951;-63
2022/09/26 02:36:01;;;;;;;10.05;3.40;;;;;;;;;;4981593;28;89372;-63
2022/09/26 02:38:34;;;;;;;4.55;2.63;;;;;;;;;;4979042;28;88284;-63
2022/09/26 02:41:05;;;;;;;8.20;3.53;;;;;;;;;;4975089;28;89133;-63
2022/09/26 02:43:38;;;;;;;12.25;3.60;;;;;;;;;;4975635;28;89144;-63
2022/09/26 02:46:37;;;;;;;11.95;4.28;;;;;;;;;;4968185;28;89569;-63
2022/09/26 02:49:13;;;;;;;7.28;3.45;;;;;;;;;;4972543;28;89049;-63
2022/09/26 02:51:54;;;;;;;6.30;3.30;;;;;;;;;;4976064;28;88954;-62
2022/09/26 02:54:24;;;;;;;7.90;3.45;;;;;;;;;;4977905;28;88710;-63
2022/09/26 02:56:56;;;;;;;7.25;3.85;;;;;;;;;;4971599;28;88280;-63
2022/09/26 02:59:40;;;;;;;12.57;3.85;;;;;;;;;;4972722;28;89806;-63
2022/09/26 03:02:16;;;;;;;10.77;4.03;;;;;;;;;;4982222;28;89286;-63
2022/09/26 03:05:01;;;;;;;8.85;4.35;;;;;;;;;;4979992;28;89741;-63
2022/09/26 03:07:42;;;;;;;9.57;3.83;;;;;;;;;;4975616;28;88767;-63
2022/09/26 03:10:09;;;;;;;8.60;4.03;;;;;;;;;;4965743;28;89867;-63
2022/09/26 03:12:36;;;;;;;8.60;4.22;;;;;;;;;;4976676;28;88268;-63
2022/09/26 03:15:03;;;;;;;9.82;4.18;;;;;;;;;;4981726;28;89803;-63
2022/09/26 03:17:32;;;;;;;12.77;4.10;;;;;;;;;;4982503;28;88973;-63
2022/09/26 03:20:02;;;;;;;6.32;3.47;;;;;;;;;;4980000;28;89678;-63
2022/09/26 03:22:28;;;;;;;7.28;3.97;;;;;;;;;;4978054;28;88092;-62
2022/09/26 03:24:58;;;;;;;11.35;4.40;;;;;;;;;;4979548;28;89295;-63
2022/09/26 03:27:24;;;;;;;10.93;4.22;;;;;;;;;;4981185;28;88778;-62
2022/09/26 03:29:50;;;;;;;7.35;3.70;;;;;;;;;;4984380;28;89048;-63
2022/09/26 03:32:16;;;;;;;7.78;3.70;;;;;;;;;;4985855;28;88195;-63
2022/09/26 03:34:43;;;;;;;4.82;3.45;;;;;;;;;;4980001;28;88828;-63
2022/09/26 03:37:10;;;;;;;11.43;3.75;;;;;;;;;;4980525;28;90040;-63
2022/09/26 03:39:36;;;;;;;12.02;4.00;;;;;;;;;;4985788;28;88902;-62
2022/09/26 03:42:02;;;;;;;9.88;3.95;;;;;;;;;;4986662;28;88191;-63
2022/09/26 03:44:29;;;;;;;10.43;3.83;;;;;;;;;;4979661;28;88093;-62
2022/09/26 03:46:55;;;;;;;7.18;3.42;;;;;;;;;;4977992;28;90094;-63
2022/09/26 03:49:21;;;;;;;12.15;3.55;;;;;;;;;;4978194;28;89433;-63
2022/09/26 03:51:47;;;;;;;11.43;4.28;;;;;;;;;;4985491;28;87868;-62
2022/09/26 03:54:14;;;;;;;6.45;3.17;;;;;;;;;;4991567;28;88196;-63
2022/09/26 03:56:40;;;;;;;10.00;3.75;;;;;;;;;;4979479;28;89014;-63
2022/09/26 03:59:06;;;;;;;10.75;4.00;;;;;;;;;;4981855;28;88830;-62
2022/09/26 04:01:33;;;;;;;10.18;4.18;;;;;;;;;;4979117;28;90433;-63
2022/09/26 04:04:00;;;;;;;8.38;3.47;;;;;;;;;;4979732;28;88500;-62
2022/09/26 04:06:26;;;;;;;7.03;3.60;;;;;;;;;;4978430;28;88724;-63
2022/09/26 04:08:52;;;;;;;9.15;3.95;;;;;;;;;;4984946;28;88930;-63
2022/09/26 04:11:20;;;;;;;9.60;4.18;;;;;;;;;;4978788;28;89071;-63
2022/09/26 04:13:47;;;;;;;7.65;3.80;;;;;;;;;;4980496;28;89809;-63
2022/09/26 04:16:19;;;;;;;5.68;3.33;;;;;;;;;;4977736;28;89139;-63
2022/09/26 04:18:45;;;;;;;8.85;3.85;;;;;;;;;;4990851;28;88140;-62
2022/09/26 04:21:15;;;;;;;7.00;3.40;;;;;;;;;;4981375;28;88772;-62
2022/09/26 04:23:42;;;;;;;5.18;3.22;;;;;;;;;;4989275;28;88815;-63
2022/09/26 04:26:16;;;;;;;9.82;3.75;;;;;;;;;;4993421;28;90521;-63
2022/09/26 04:28:49;;;;;;;11.25;3.65;;;;;;;;;;4982256;28;89066;-63
2022/09/26 04:31:16;;;;;;;11.10;3.67;;;;;;;;;;4977196;28;90014;-63
2022/09/26 04:33:42;;;;;;;6.25;3.25;;;;;;;;;;4988535;28;89201;-62
2022/09/26 04:36:10;;;;;;;9.27;3.13;;;;;;;;;;4988396;28;88796;-63
2022/09/26 04:38:38;;;;;;;7.10;2.95;;;;;;;;;;4980680;28;88527;-62
2022/09/26 04:41:04;;;;;;;4.82;2.60;;;;;;;;;;4978752;28;88677;-62
2022/09/26 04:43:30;;;;;;;5.32;2.42;;;;;;;;;;4989132;28;90053;-62
2022/09/26 04:45:57;;;;;;;11.20;2.53;;;;;;;;;;4973984;28;88693;-63
2022/09/26 04:48:24;;;;;;;8.85;2.42;;;;;;;;;;4978347;28;90881;-63
2022/09/26 04:50:50;;;;;;;7.35;2.45;;;;;;;;;;4983985;28;88027;-64
2022/09/26 04:53:18;;;;;;;7.25;2.55;;;;;;;;;;4983553;28;90423;-63
2022/09/26 04:55:45;;;;;;;6.95;2.40;;;;;;;;;;4990109;28;88945;-63
2022/09/26 04:58:12;;;;;;;8.30;2.13;;;;;;;;;;4992696;28;88907;-63
2022/09/26 05:00:44;;;;;;;7.55;2.20;;;;;;;;;;4978064;28;88653;-64
2022/09/26 05:03:12;;;;;;;7.72;2.08;;;;;;;;;;4989742;28;89788;-62
2022/09/26 05:05:43;;;;;;;9.02;2.20;;;;;;;;;;4973664;28;87900;-63
2022/09/26 05:08:10;;;;;;;6.65;2.42;;;;;;;;;;4976752;28;89039;-63
2022/09/26 05:10:37;;;;;;;7.63;2.38;;;;;;;;;;4978126;28;88048;-63
2022/09/26 05:13:03;;;;;;;5.03;2.05;;;;;;;;;;4984440;28;89550;-63
2022/09/26 05:15:29;;;;;;;4.75;2.15;;;;;;;;;;4985333;28;89450;-63
2022/09/26 05:17:56;;;;;;;10.73;2.53;;;;;;;;;;4989053;28;88933;-63
2022/09/26 05:20:23;;;;;;;7.38;2.83;;;;;;;;;;4976833;28;88870;-62
2022/09/26 05:22:49;;;;;;;6.35;2.85;;;;;;;;;;4983156;28;88793;-63
2022/09/26 05:28:00;;;;;;;5.93;2.08;;;;;;;;;;4982071;28;88709;-63
2022/09/26 05:30:30;;;;;;;6.88;2.90;;;;;;;;;;4976618;28;88876;-63
2022/09/26 05:32:57;;;;;;;10.68;2.97;;;;;;;;;;4981535;28;88383;-63
2022/09/26 05:35:23;;;;;;;9.95;2.80;;;;;;;;;;4985113;28;90032;-63
2022/09/26 05:37:56;;;;;;;9.32;2.10;;;;;;;;;;4974547;28;89364;-64
2022/09/26 05:43:07;;;;;;;9.15;2.72;;;;;;;;;;4977140;28;90043;-63
2022/09/26 05:45:34;;;;;;;7.95;2.38;;;;;;;;;;4980412;28;87947;-63
2022/09/26 05:48:00;;;;;;;6.68;2.40;;;;;;;;;;4976979;28;89673;-63
2022/09/26 05:50:26;;;;;;;4.50;1.98;;;;;;;;;;4991174;28;89132;-63
2022/09/26 05:52:55;;;;;;;7.85;2.50;;;;;;;;;;4973138;28;89160;-63
2022/09/26 05:55:23;;;;;;;9.55;2.97;;;;;;;;;;4976731;28;88342;-63
2022/09/26 05:57:50;;;;;;;7.47;2.38;;;;;;;;;;4984887;28;88865;-62
2022/09/26 06:00:16;;;;;;;6.93;2.55;;;;;;;;;;4975531;28;88757;-63
2022/09/26 06:02:42;;;;;;;3.90;2.38;;;;;;;;;;4981031;28;89795;-64
2022/09/26 06:05:09;;;;;;;9.68;2.17;;;;;;;;;;4978298;28;88209;-63
2022/09/26 06:07:35;;;;;;;6.65;2.15;;;;;;;;;;4971370;28;88718;-62
2022/09/26 06:10:04;;;;;;;8.18;2.45;;;;;;;;;;4979423;28;89015;-63
2022/09/26 06:12:30;;;;;;;5.55;2.10;;;;;;;;;;4975338;28;89178;-63
2022/09/26 06:14:57;;;;;;;9.55;2.63;;;;;;;;;;4977596;28;89009;-64
2022/09/26 06:17:24;;;;;;;18.27;3.30;;;;;;;;;;4979253;28;88691;-63
2022/09/26 06:19:50;;;;;;;8.13;2.22;;;;;;;;;;4978405;28;88728;-63
2022/09/26 06:22:16;;;;;;;3.92;2.20;;;;;;;;;;4976252;28;88976;-64
2022/09/26 06:24:42;;;;;;;5.18;2.30;;;;;;;;;;4975156;28;88074;-65
2022/09/26 06:27:09;;;;;;;6.35;2.65;;;;;;;;;;4974517;28;89830;-64
2022/09/26 06:29:36;;;;;;;6.68;2.50;;;;;;;;;;4991331;28;89375;-63
2022/09/26 06:32:02;;;;;;;9.15;2.50;;;;;;;;;;4981889;28;88062;-63
2022/09/26 06:34:29;;;;;;;6.50;2.78;;;;;;;;;;4976617;28;90491;-64
2022/09/26 06:36:55;;;;;;;7.35;2.53;;;;;;;;;;4995175;28;88038;-64
2022/09/26 06:39:21;;;;;;;5.22;2.35;;;;;;;;;;4977886;28;88572;-64
2022/09/26 06:41:48;;;;;;;12.25;2.55;;;;;;;;;;4986716;28;88945;-63
2022/09/26 06:44:14;;;;;;;8.07;2.63;;;;;;;;;;4993009;28;88010;-63
2022/09/26 06:46:40;;;;;;;7.07;2.25;;;;;;;;;;4982535;28;88042;-64
2022/09/26 06:49:07;;;;;;;6.60;1.95;;;;;;;;;;4975955;28;89197;-63
2022/09/26 06:51:33;;;;;;;5.65;2.22;;;;;;;;;;4989264;28;90509;-63
2022/09/26 06:53:59;;;;;;;5.95;2.22;;;;;;;;;;4986883;28;89490;-64
2022/09/26 06:56:26;;;;;;;11.27;2.60;;;;;;;;;;4986648;28;88903;-63
2022/09/26 06:58:52;;;;;;;10.52;2.53;;;;;;;;;;4984832;28;88618;-63
2022/09/26 07:01:18;;;;;;;5.95;2.78;;;;;;;;;;4980703;28;89392;-63
2022/09/26 07:03:45;;;;;;;5.63;2.10;;;;;;;;;;4995249;28;88417;-63
2022/09/26 07:06:12;;;;;;;10.07;2.25;;;;;;;;;;4988158;28;88754;-64
2022/09/26 07:08:39;;;;;;;6.80;2.05;;;;;;;;;;4987446;28;88729;-63
2022/09/26 07:11:26;;;;;;;6.25;2.25;;;;;;;;;;4968706;28;89535;-63
2022/09/26 07:14:14;;;;;;;7.75;2.22;;;;;;;;;;4979759;28;88741;-63
2022/09/26 07:16:40;;;;;;;7.00;2.10;;;;;;;;;;4978670;28;89962;-64
2022/09/26 07:19:07;;;;;;;7.53;2.78;;;;;;;;;;4988317;28;89660;-63
2022/09/26 07:21:33;;;;;;;8.82;2.55;;;;;;;;;;4991727;28;89500;-69
2022/09/26 07:24:00;;;;;;;6.63;2.83;;;;;;;;;;4999819;28;88925;-64
2022/09/26 07:26:26;;;;;;;5.88;2.92;;;;;;;;;;4995497;28;89282;-64
2022/09/26 07:28:52;;;;;;;5.95;2.33;;;;;;;;;;4993141;28;88195;-65
2022/09/26 07:31:22;;;;;;;8.43;2.30;;;;;;;;;;4987131;28;87967;-64
2022/09/26 07:33:48;;;;;;;7.35;2.10;;;;;;;;;;4991151;28;88444;-64
2022/09/26 07:36:14;;;;;;;8.30;2.50;;;;;;;;;;5000737;28;88969;-67
2022/09/26 07:38:42;;;;;;;8.35;2.72;;;;;;;;;;4980293;28;88942;-64
2022/09/26 07:41:10;;;;;;;10.05;2.92;;;;;;;;;;4982921;28;89701;-64
2022/09/26 07:43:36;;;;;;;8.35;3.30;;;;;;;;;;4988623;28;88942;-64
2022/09/26 07:51:53;;;;;;;5.05;2.38;;;;;;;;;;4974365;28;89573;-63
2022/09/26 07:54:20;;;;;;;8.85;2.72;;;;;;;;;;4975478;28;89747;-63
2022/09/26 07:56:46;;;;;;;6.25;2.60;;;;;;;;;;4980147;28;88938;-64
2022/09/26 07:59:13;;;;;;;6.82;2.40;;;;;;;;;;4977014;28;89044;-64
2022/09/26 08:01:39;;;;;;;8.90;2.88;;;;;;;;;;4982358;28;89010;-65
2022/09/26 08:04:06;;;;;;;7.05;2.70;;;;;;;;;;4981127;28;88972;-64
2022/09/26 08:06:33;;;;;;;8.75;2.90;;;;;;;;;;4979122;28;88782;-64
2022/09/26 08:09:00;;;;;;;9.70;3.13;;;;;;;;;;4978839;28;90027;-63
2022/09/26 08:11:26;;;;;;;8.75;2.95;;;;;;;;;;4970950;28;89266;-63
2022/09/26 08:13:52;;;;;;;4.07;2.40;;;;;;;;;;4984099;28;90097;-63
2022/09/26 08:16:21;;;;;;;9.98;3.50;;;;;;;;;;4981307;28;90385;-63
2022/09/26 08:18:52;;;;;;;15.40;3.47;;;;;;;;;;4978280;28;88127;-64
2022/09/26 08:21:18;;;;;;;;;;;;;;;;;;4982677;28;89856;-63
2022/09/26 08:23:45;;;;;;;15.60;2.95;;;;;;;;;;4986805;28;118928;-65
2022/09/26 08:26:12;;;;;;;11.05;2.88;;;;;;;;;;4978574;28;88608;-64
2022/09/26 08:28:39;;;;;;;8.65;3.00;;;;;;;;;;4978601;28;89160;-62
2022/09/26 08:31:05;;;;;;;8.20;2.90;;;;;;;;;;4978794;28;91979;-64
2022/09/26 08:33:34;;;;;;;7.55;2.70;;;;;;;;;;4981216;28;89568;-64
2022/09/26 08:36:04;;;;;;;12.20;2.50;;;;;;;;;;4989763;28;88998;-63
2022/09/26 08:38:31;;;;;;;8.38;2.50;;;;;;;;;;4977935;28;88801;-64
2022/09/26 08:41:15;;;;;;;10.15;3.40;;;;;;;;;;4978667;28;88779;-62
2022/09/26 08:43:51;;;;;;;8.35;2.95;;;;;;;;;;4980584;28;88988;-63
2022/09/26 08:49:27;;;;;;;6.57;3.00;;;;;;;;;;4998707;28;88512;-62
2022/09/26 08:51:56;;;;;;;7.75;2.80;;;;;;;;;;4989449;28;88420;-65
2022/09/26 08:54:42;;;;;;;7.38;2.88;;;;;;;;;;4994403;28;89794;-63
2022/09/26 08:57:20;;;;;;;10.95;3.15;;;;;;;;;;4976059;28;89775;-64
2022/09/26 08:59:47;;;;;;;8.98;3.15;;;;;;;;;;4990219;28;88938;-63
2022/09/26 09:02:36;;;;;;;15.45;3.28;;;;;;;;;;4960065;28;88837;-63
2022/09/26 09:05:06;;;;;;;11.38;3.05;;;;;;;;;;4966747;28;89017;-63
2022/09/26 09:07:32;;;;;;;10.60;3.13;;;;;;;;;;4981338;28;88038;-63
2022/09/26 09:10:13;;;;;;;8.10;3.15;;;;;;;;;;4985109;28;88945;-63
2022/09/26 09:12:55;;;;;;;8.10;3.28;;;;;;;;;;4983906;28;88042;-63
2022/09/26 09:15:24;;;;;;;10.73;3.63;;;;;;;;;;4970799;28;89299;-62
2022/09/26 09:17:58;;;;;;;11.25;3.58;;;;;;;;;;4975053;28;88975;-63
2022/09/26 09:20:41;;;;;;;9.07;2.95;;;;;;;;;;4981477;28;88532;-63
2022/09/26 09:23:17;;;;;;;14.63;3.75;;;;;;;;;;4979049;28;88744;-63
2022/09/26 09:25:48;;;;;;;15.90;3.97;;;;;;;;;;4978201;28;89137;-63
2022/09/26 09:28:33;;;;;;;14.13;3.60;;;;;;;;;;4976586;28;88668;-62
2022/09/26 09:31:00;;;;;;;10.23;3.25;;;;;;;;;;4979764;28;88832;-63
2022/09/26 09:33:30;;;;;;;7.72;3.30;;;;;;;;;;4979164;28;89187;-63
2022/09/26 09:36:02;;;;;;;11.43;3.97;;;;;;;;;;4972994;28;88052;-64
2022/09/26 09:38:29;;;;;;;9.20;3.28;;;;;;;;;;4978123;28;89427;-62
2022/09/26 09:41:00;;;;;;;9.98;3.40;;;;;;;;;;4979095;28;87852;-63
2022/09/26 09:43:36;;;;;;;13.15;3.65;;;;;;;;;;4978817;28;88046;-62
2022/09/26 09:46:23;;;;;;;7.78;3.10;;;;;;;;;;4977130;28;87965;-64
2022/09/26 09:48:53;;;;;;;21.33;3.90;;;;;;;;;;4972278;28;90243;-63
2022/09/26 09:51:31;;;;;;;15.38;3.60;;;;;;;;;;4977699;28;89529;-64
2022/09/26 09:54:13;;;;;;;11.68;3.50;;;;;;;;;;4981479;28;89020;-63
2022/09/26 09:57:08;;;;;;;10.77;2.95;;;;;;;;;;4976349;28;88926;-64
2022/09/26 09:59:41;;;;;;;15.73;3.53;;;;;;;;;;4975117;28;91405;-65
2022/09/26 10:02:13;;;;;;;10.40;3.63;;;;;;;;;;4965817;28;88297;-65
2022/09/26 10:04:45;;;;;;;12.27;3.70;;;;;;;;;;4956435;28;88766;-65
2022/09/26 10:07:11;;;;;;;22.88;9.10;;;;;;;;;;4965396;28;88255;-65
2022/09/26 10:09:39;;;;;;;20.15;4.30;;;;;;;;;;4974088;28;88999;-66
2022/09/26 10:12:11;;;;;;;14.27;3.60;;;;;;;;;;4975207;28;88072;-65
2022/09/26 10:14:41;;;;;;;16.98;5.10;;;;;;;;;;4975678;28;90751;-65
2022/09/26 10:17:07;;;;;;;;;;;;;;;;;;4977851;28;88153;-64
2022/09/26 10:19:36;;;;;;;8.95;3.33;;;;;;;;;;4976321;28;119758;-63
2022/09/26 10:22:08;;;;;;;15.50;3.42;;;;;;;;;;4975057;28;88178;-64
2022/09/26 10:24:39;;;;;;;11.35;3.33;;;;;;;;;;4975867;28;88797;-64
2022/09/26 10:27:24;;;;;;;13.48;3.33;;;;;;;;;;4971561;28;88941;-65
2022/09/26 10:30:00;;;;;;;9.80;3.05;;;;;;;;;;4973340;28;88910;-66
2022/09/26 10:32:28;;;;;;;8.88;3.22;;;;;;;;;;4972413;28;88736;-63
2022/09/26 10:35:28;;;;;;;9.65;3.38;;;;;;;;;;4967504;28;89993;-64
2022/09/26 10:37:57;;;;;;;11.70;3.58;;;;;;;;;;4984173;28;88970;-67
2022/09/26 10:40:44;;;;;;;10.35;3.50;;;;;;;;;;4994603;28;90653;-64
2022/09/26 10:43:22;;;;;;;9.68;3.67;;;;;;;;;;4998210;28;87921;-63
2022/09/26 10:46:00;;;;;;;6.90;3.42;;;;;;;;;;4993529;28;88682;-63
2022/09/26 10:48:37;;;;;;;10.32;3.88;;;;;;;;;;4977172;28;89975;-65
2022/09/26 10:51:04;;;;;;;9.57;3.92;;;;;;;;;;4976318;28;88952;-66
2022/09/26 10:53:33;;;;;;;7.40;3.17;;;;;;;;;;4976237;28;90247;-65
2022/09/26 10:56:04;;;;;;;10.65;3.70;;;;;;;;;;4996768;28;89892;-64
2022/09/26 10:58:31;;;;;;;9.50;6.25;;;;;;;;;;4976383;28;87889;-64
2022/09/26 11:00:58;;;;;;;11.07;4.72;;;;;;;;;;4980332;28;89116;-64
2022/09/26 11:03:33;;;;;;;8.02;3.38;;;;;;;;;;4976432;28;87969;-64
2022/09/26 11:05:59;;;;;;;7.90;3.72;;;;;;;;;;4976257;28;89013;-65
2022/09/26 11:08:30;;;;;;;8.15;3.70;;;;;;;;;;4975011;28;90139;-64
2022/09/26 11:10:56;;;;;;;;;;;;;;;;;;4977856;28;88977;-64
2022/09/26 11:13:24;;;;;;;8.13;3.45;;;;;;;;;;4977181;28;119001;-64
2022/09/26 11:16:00;;;;;;;6.55;3.40;;;;;;;;;;4977734;28;90074;-64
2022/09/26 11:18:38;;;;;;;6.32;2.85;;;;;;;;;;4976545;28;89011;-65
2022/09/26 11:21:14;;;;;;;9.32;7.13;;;;;;;;;;4976590;28;88777;-65
2022/09/26 11:23:57;;;;;;;11.47;9.40;;;;;;;;;;4997158;28;90179;-65
2022/09/26 11:26:43;;;;;;;9.82;5.93;;;;;;;;;;4997011;28;88065;-65
2022/09/26 11:29:22;;;;;;;4.97;4.05;;;;;;;;;;4980026;28;90195;-64
2022/09/26 11:31:48;;;;;;;7.25;5.05;;;;;;;;;;4979851;28;88874;-64
2022/09/26 11:34:18;;;;;;;6.97;3.63;;;;;;;;;;4981270;28;90511;-67
2022/09/26 11:36:53;;;;;;;10.73;5.13;;;;;;;;;;4957110;28;89412;-67
2022/09/26 11:39:32;;;;;;;7.75;3.78;;;;;;;;;;4957519;28;88983;-69
2022/09/26 11:42:23;;;;;;;8.30;3.85;;;;;;;;;;4974817;28;89401;-66
2022/09/26 11:44:49;;;;;;;4.90;2.78;;;;;;;;;;4989035;28;90036;-66
2022/09/26 11:47:35;;;;;;;9.00;3.00;;;;;;;;;;4984077;28;88243;-68
2022/09/26 11:50:06;;;;;;;6.45;3.38;;;;;;;;;;4982975;28;88502;-68
2022/09/26 11:52:32;;;;;;;3.30;2.40;;;;;;;;;;4982808;28;88090;-66
2022/09/26 11:55:11;;;;;;;4.30;3.00;;;;;;;;;;4977718;28;89639;-69
2022/09/26 11:57:56;;;;;;;7.10;2.95;;;;;;;;;;4979131;28;89718;-66
2022/09/26 12:00:25;;;;;;;5.25;3.08;;;;;;;;;;4978885;28;88213;-70
2022/09/26 12:03:11;;;;;;;6.82;3.38;;;;;;;;;;4979829;28;89766;-69
2022/09/26 12:05:58;;;;;;;4.88;3.45;;;;;;;;;;4995721;28;90007;-71
2022/09/26 12:08:31;;;;;;;4.28;2.72;;;;;;;;;;4980062;28;88391;-69
2022/09/26 12:11:04;;;;;;;6.07;3.00;;;;;;;;;;4983793;28;89920;-65
2022/09/26 12:13:37;;;;;;;4.47;2.70;;;;;;;;;;4976482;28;88897;-66
2022/09/26 12:16:10;;;;;;;6.47;3.20;;;;;;;;;;4980978;28;87438;-66
2022/09/26 12:18:45;;;;;;;3.42;3.08;;;;;;;;;;4980316;28;89759;-66
2022/09/26 12:21:22;;;;;;;6.35;3.17;;;;;;;;;;4979061;28;88844;-65
2022/09/26 12:24:07;;;;;;;4.25;3.10;;;;;;;;;;4976899;28;90119;-66
2022/09/26 12:26:36;;;;;;;5.97;3.40;;;;;;;;;;4979128;28;87970;-65
2022/09/26 12:29:15;;;;;;;7.97;3.70;;;;;;;;;;4979683;28;88039;-66
2022/09/26 12:31:47;;;;;;;6.53;4.15;;;;;;;;;;4991300;28;88578;-66
2022/09/26 12:34:41;;;;;;;6.20;3.58;;;;;;;;;;4979140;28;88197;-65
2022/09/26 12:37:11;;;;;;;4.13;3.50;;;;;;;;;;4979453;28;88594;-66
2022/09/26 12:39:40;;;;;;;4.15;3.75;;;;;;;;;;4977978;28;89054;-66
2022/09/26 12:42:15;;;;;;;6.32;3.53;;;;;;;;;;4979304;28;87757;-65
2022/09/26 12:44:57;;;;;;;6.55;3.15;;;;;;;;;;4978312;28;88136;-65
2022/09/26 12:47:42;;;;;;;3.50;3.15;;;;;;;;;;4979867;28;90289;-64
2022/09/26 12:50:29;;;;;;;2.95;2.72;;;;;;;;;;4979000;28;88765;-65
2022/09/26 12:53:10;;;;;;;3.53;3.25;;;;;;;;;;4972622;28;91029;-64
2022/09/26 12:55:37;;;;;;;2.58;2.38;;;;;;;;;;4971251;28;89029;-64
2022/09/26 12:58:11;;;;;;;2.35;2.15;;;;;;;;;;4978672;28;88781;-63
2022/09/26 13:01:08;;;;;;;3.08;2.70;;;;;;;;;;4986495;28;88981;-63
2022/09/26 13:03:48;;;;;;;3.17;2.22;;;;;;;;;;4950824;28;88084;-67
2022/09/26 13:06:17;;;;;;;3.67;2.47;;;;;;;;;;4953775;28;88803;-67
2022/09/26 13:09:01;;;;;;;5.18;2.92;;;;;;;;;;4951837;28;88647;-66
2022/09/26 13:11:32;;;;;;;3.40;2.75;;;;;;;;;;4954764;28;88541;-63
2022/09/26 13:14:17;;;;;;;2.95;2.75;;;;;;;;;;4951169;28;89932;-64
2022/09/26 13:16:47;;;;;;;2.67;2.42;;;;;;;;;;4957115;28;89749;-64
2022/09/26 13:19:32;;;;;;;2.70;2.50;;;;;;;;;;4958551;28;88174;-65
2022/09/26 13:22:00;;;;;;;2.13;1.92;;;;;;;;;;4956250;28;89976;-64
2022/09/26 13:24:33;;;;;;;3.55;3.25;;;;;;;;;;4970204;28;88940;-65
2022/09/26 13:27:16;;;;;;;1.92;1.83;;;;;;;;;;4965089;28;88752;-64
2022/09/26 13:29:45;;;;;;;6.18;2.42;;;;;;;;;;4961889;28;88549;-64
2022/09/26 13:32:15;;;;;;;3.20;2.90;;;;;;;;;;4956846;28;89252;-64
2022/09/26 13:34:46;;;;;;;3.15;2.95;;;;;;;;;;4957022;28;88796;-64
2022/09/26 13:37:27;;;;;;;4.03;3.60;;;;;;;;;;4939462;28;90145;-63
2022/09/26 13:40:08;;;;;;;1.92;1.83;;;;;;;;;;4977633;28;88927;-64
2022/09/26 13:42:46;;;;;;;2.20;2.00;;;;;;;;;;4992337;28;88774;-63
2022/09/26 13:45:21;;;;;;;2.60;2.40;;;;;;;;;;4966647;28;90037;-63
2022/09/26 13:47:51;;;;;;;2.30;1.90;;;;;;;;;;4979373;28;89500;-67
2022/09/26 13:50:22;;;;;;;3.78;3.45;;;;;;;;;;4981433;28;90110;-64
2022/09/26 13:53:07;;;;;;;5.00;3.40;;;;;;;;;;4972137;28;88627;-68
2022/09/26 13:55:35;;;;;;;4.03;2.88;;;;;;;;;;4982565;28;89847;-65
2022/09/26 13:58:05;;;;;;;10.57;7.00;;;;;;;;;;4978573;28;88991;-65
2022/09/26 14:00:39;;;;;;;3.10;2.28;;;;;;;;;;4978053;28;88862;-64
2022/09/26 14:03:06;;;;;;;2.85;2.42;;;;;;;;;;4975369;28;89477;-63
2022/09/26 14:05:42;;;;;;;4.85;3.08;;;;;;;;;;4979947;28;89002;-65
2022/09/26 14:11:18;;;;;;;7.32;4.90;;;;;;;;;;4961154;28;90023;-65
2022/09/26 14:13:45;;;;;;;2.45;1.90;;;;;;;;;;4962473;28;88063;-65
2022/09/26 14:16:32;;;;;;;5.50;3.63;;;;;;;;;;4977694;28;89089;-66
2022/09/26 14:19:08;;;;;;;4.65;3.30;;;;;;;;;;4975494;28;89012;-65
2022/09/26 14:21:34;;;;;;;4.75;2.70;;;;;;;;;;4971453;28;88378;-65
2022/09/26 14:24:18;;;;;;;4.70;4.30;;;;;;;;;;4976848;28;88557;-65
2022/09/26 14:27:05;;;;;;;4.68;3.40;;;;;;;;;;4977896;28;90703;-64
2022/09/26 14:29:31;;;;;;;2.38;2.05;;;;;;;;;;4977778;28;88183;-67
2022/09/26 14:32:13;;;;;;;5.10;2.53;;;;;;;;;;4998250;28;90019;-65
2022/09/26 14:34:41;;;;;;;2.50;2.30;;;;;;;;;;4997235;28;88827;-64
2022/09/26 14:37:25;;;;;;;2.70;2.05;;;;;;;;;;4991991;28;89865;-65
2022/09/26 14:40:05;;;;;;;4.63;2.95;;;;;;;;;;4986689;28;89585;-65
2022/09/26 14:42:37;;;;;;;2.50;2.30;;;;;;;;;;4978120;28;88590;-65
2022/09/26 14:45:04;;;;;;;2.20;2.10;;;;;;;;;;4975243;28;88734;-65
2022/09/26 14:47:39;;;;;;;2.42;2.20;;;;;;;;;;4977961;28;90198;-66
2022/09/26 14:50:11;;;;;;;3.03;2.67;;;;;;;;;;4991076;28;88175;-65
2022/09/26 14:52:37;;;;;;;5.43;2.65;;;;;;;;;;4998204;28;88153;-65
2022/09/26 14:55:04;;;;;;;3.80;2.85;;;;;;;;;;4987789;28;88876;-64
2022/09/26 14:57:32;;;;;;;6.05;2.70;;;;;;;;;;4976910;28;88819;-65
2022/09/26 14:59:59;;;;;;;7.50;6.20;;;;;;;;;;4975450;28;90760;-64
2022/09/26 15:02:37;;;;;;;5.00;3.67;;;;;;;;;;4976988;28;88059;-65
2022/09/26 15:05:23;;;;;;;5.75;3.22;;;;;;;;;;4977570;28;88759;-65
2022/09/26 15:07:51;;;;;;;5.28;3.38;;;;;;;;;;4972857;28;89931;-65
2022/09/26 15:10:36;;;;;;;14.57;11.38;;;;;;;;;;4975816;28;88107;-64
2022/09/26 15:13:21;;;;;;;3.05;2.80;;;;;;;;;;4975864;28;90521;-66
2022/09/26 15:15:56;;;;;;;11.55;7.32;;;;;;;;;;4984282;28;91787;-65
2022/09/26 15:18:28;;;;;;;2.85;2.65;;;;;;;;;;4994840;28;88816;-65
2022/09/26 15:21:18;;;;;;;3.30;3.00;;;;;;;;;;5001056;28;89653;-65
2022/09/26 15:23:46;;;;;;;4.45;3.33;;;;;;;;;;4989149;28;88909;-65
2022/09/26 15:26:14;;;;;;;6.05;4.57;;;;;;;;;;4980789;28;89829;-66